CST,Max TemperatureF,Mean TemperatureF,Min TemperatureF,Max Dew PointF,MeanDew PointF,Min DewpointF,Max Humidity, Mean Humidity, Min Humidity, Max Sea Level PressureIn, Mean Sea Level PressureIn, Min Sea Level PressureIn, Max VisibilityMiles, Mean VisibilityMiles, Min VisibilityMiles, Max Wind SpeedMPH, Mean Wind SpeedMPH, Max Gust SpeedMPH,PrecipitationIn, CloudCover, Events, WindDirDegrees
2013-2-1,14,5,-4,12,-3,-10,88,73,65,30.35,30.27,30.12,10,9,1,15,10,22,0.00,2,Snow,231
2013-2-2,21,13,5,18,9,2,89,80,68,30.11,30.06,29.99,10,9,1,17,8,21,0.00,6,Snow,290
2013-2-3,21,16,12,18,13,8,93,80,66,30.05,30.01,29.95,10,7,2,18,7,25,0.00,7,Snow,240
2013-2-4,21,12,4,19,13,-2,93,83,72,29.99,29.93,29.86,10,8,1,15,8,18,0.00,5,Snow,26
2013-2-5,33,20,8,29,19,-1,88,80,66,30.10,29.90,29.79,10,8,0,17,8,25,0.00,7,Snow,229
2013-2-6,37,23,9,33,22,6,90,84,77,30.20,30.13,30.06,10,8,5,13,4,,0.01,4,,122
2013-2-7,36,31,26,33,31,23,93,91,85,30.06,29.98,29.90,10,3,0,16,7,22,0.28,8,Rain-Snow,65
2013-2-8,26,16,7,22,17,4,90,84,78,30.39,30.30,30.08,10,9,0,18,9,28,0.00,5,Fog,352
2013-2-9,33,26,18,30,24,16,93,88,80,30.38,30.24,30.05,10,8,4,22,9,24,0.00,7,,131
2013-2-10,43,32,21,42,33,19,94,91,75,30.05,29.68,29.43,10,5,1,26,13,44,0.29,7,Rain,132
2013-2-11,38,32,25,34,26,20,88,78,72,30.06,29.77,29.48,10,9,2,32,23,44,0.00,8,Snow,244
2013-2-12,33,28,23,27,22,18,87,80,70,30.11,30.03,29.89,10,10,7,17,11,23,0.00,5,,234
2013-2-13,41,32,23,34,29,21,91,84,71,29.88,29.77,29.70,10,9,5,12,7,17,0.00,3,,210
2013-2-14,39,36,31,34,30,25,87,79,64,30.01,29.79,29.61,10,10,10,23,13,36,0.00,7,,252
2013-2-15,31,24,16,28,13,8,85,64,42,30.22,30.17,30.01,10,10,10,18,11,28,0.00,2,Snow,298
2013-2-16,19,16,13,9,7,5,78,68,53,30.22,30.18,30.15,10,10,10,15,8,20,0.00,1,,293
2013-2-17,33,20,8,24,13,4,84,70,49,30.19,30.10,29.89,10,10,10,15,4,18,0.00,0,,131
2013-2-18,54,40,25,42,31,21,93,79,64,29.89,29.63,29.49,10,8,1,23,14,30,0.18,3,Rain-Snow,164
2013-2-19,16,11,6,12,6,0,86,76,71,30.23,29.95,29.70,10,7,1,25,18,34,0.00,5,Snow,267
2013-2-20,19,12,5,12,5,-2,86,74,68,30.39,30.34,30.25,10,10,10,15,9,20,0.00,0,,292
2013-2-21,27,18,8,24,16,5,91,86,79,30.38,30.24,29.94,10,9,0,30,7,37,0.00,6,Snow,40
2013-2-22,32,28,24,28,25,21,93,88,85,29.94,29.85,29.79,10,6,1,18,11,17,0.07,8,Snow-Thunderstorm,154
2013-2-23,27,24,19,22,19,16,86,81,71,29.97,29.93,29.90,10,10,7,13,9,20,0.00,5,Snow,231
2013-2-24,33,20,7,23,15,4,89,80,65,30.14,30.08,29.97,10,10,7,6,2,,0.00,0,,220
2013-2-25,38,26,13,31,22,11,93,83,72,30.16,30.10,29.96,10,6,2,10,2,,0.00,2,,52
2013-2-26,35,33,31,32,29,27,92,84,74,29.96,29.71,29.59,10,7,1,29,16,36,0.00,4,Snow,20
2013-2-27,33,32,30,32,30,28,93,89,84,29.79,29.68,29.61,10,5,1,15,11,22,0.01,8,Snow,320
2013-2-28,34,31,27,32,28,21,91,82,73,30.12,29.98,29.79,10,10,4,16,11,22,0.01,8,Snow,339